createdAt,value
2019-02-17T00:02:21.093Z,7.20
2019-02-17T00:04:53.742Z,7.20
2019-02-17T00:07:26.390Z,7.10
2019-02-17T00:09:59.182Z,7.10
2019-02-17T00:12:31.833Z,7.10
2019-02-17T00:15:04.857Z,7.00
2019-02-17T00:17:37.608Z,7.00
2019-02-17T00:20:10.238Z,7.00
2019-02-17T00:22:42.886Z,7.00
2019-02-17T00:25:15.565Z,7.00
2019-02-17T00:27:48.198Z,7.00
2019-02-17T00:30:20.854Z,7.00
2019-02-17T00:32:53.583Z,7.00
2019-02-17T00:35:26.232Z,7.00
2019-02-17T00:37:58.890Z,7.00
2019-02-17T00:40:31.566Z,7.00
2019-02-17T00:43:04.265Z,7.10
2019-02-17T00:45:36.938Z,7.10
2019-02-17T00:48:09.587Z,7.20
2019-02-17T00:50:42.252Z,7.20
2019-02-17T00:53:14.915Z,7.20
2019-02-17T00:55:47.550Z,7.20
2019-02-17T00:58:20.181Z,7.20
2019-02-17T01:00:52.900Z,7.20
2019-02-17T01:03:25.547Z,7.10
2019-02-17T01:05:58.221Z,7.10
2019-02-17T01:08:30.867Z,7.00
2019-02-17T01:11:03.526Z,7.00
2019-02-17T01:13:36.222Z,7.00
2019-02-17T01:16:08.931Z,7.00
2019-02-17T01:18:41.575Z,7.00
2019-02-17T01:21:14.227Z,6.90
2019-02-17T01:23:46.941Z,6.90
2019-02-17T01:26:19.586Z,6.90
2019-02-17T01:28:52.238Z,6.80
2019-02-17T01:31:25.098Z,6.80
2019-02-17T01:33:59.531Z,6.70
2019-02-17T01:36:32.731Z,6.70
2019-02-17T01:39:06.217Z,6.70
2019-02-17T01:41:38.888Z,6.70
2019-02-17T01:44:11.702Z,6.70
2019-02-17T01:46:44.362Z,6.70
2019-02-17T01:49:17.274Z,6.70
2019-02-17T01:51:49.932Z,6.70
2019-02-17T01:54:22.749Z,6.60
2019-02-17T01:56:55.427Z,6.60
2019-02-17T01:59:30.622Z,6.60
2019-02-17T02:02:02.504Z,6.60
2019-02-17T02:04:35.129Z,6.50
2019-02-17T02:07:07.780Z,6.50
2019-02-17T02:09:40.679Z,6.50
2019-02-17T02:12:13.322Z,6.50
2019-02-17T02:14:45.991Z,6.50
2019-02-17T02:17:18.630Z,6.50
2019-02-17T02:19:51.274Z,6.50
2019-02-17T02:22:23.909Z,6.50
2019-02-17T02:24:56.575Z,6.50
2019-02-17T02:27:29.223Z,6.50
2019-02-17T02:30:01.876Z,6.50
2019-02-17T02:32:34.530Z,6.50
2019-02-17T02:35:07.177Z,6.40
2019-02-17T02:37:39.821Z,6.40
2019-02-17T02:40:12.466Z,6.30
2019-02-17T02:42:45.119Z,6.30
2019-02-17T02:45:17.775Z,6.20
2019-02-17T02:47:50.421Z,6.20
2019-02-17T02:50:23.079Z,6.20
2019-02-17T02:52:55.720Z,6.20
2019-02-17T02:55:28.387Z,6.30
2019-02-17T02:58:01.020Z,6.20
2019-02-17T03:00:33.699Z,6.20
2019-02-17T03:03:06.343Z,6.10
2019-02-17T03:05:39.119Z,6.10
2019-02-17T03:08:11.824Z,6.10
2019-02-17T03:10:44.517Z,6.00
2019-02-17T03:13:17.157Z,6.00
2019-02-17T03:15:49.823Z,5.90
2019-02-17T03:18:22.474Z,5.90
2019-02-17T03:20:55.170Z,5.90
2019-02-17T03:23:27.805Z,5.90
2019-02-17T03:26:00.469Z,5.90
2019-02-17T03:28:33.111Z,5.80
2019-02-17T03:31:05.755Z,5.80
2019-02-17T03:33:38.407Z,5.80
2019-02-17T03:36:11.095Z,5.80
2019-02-17T03:38:43.766Z,5.80
2019-02-17T03:41:16.430Z,5.80
2019-02-17T03:43:49.080Z,5.80
2019-02-17T03:46:21.747Z,5.80
2019-02-17T03:48:54.409Z,5.80
2019-02-17T03:51:27.069Z,5.80
2019-02-17T03:53:59.729Z,5.80
2019-02-17T03:56:32.369Z,5.80
2019-02-17T03:59:05.010Z,5.80
2019-02-17T04:01:37.659Z,5.90
2019-02-17T04:04:10.320Z,5.90
2019-02-17T04:06:43.039Z,6.00
2019-02-17T04:09:15.757Z,6.00
2019-02-17T04:11:48.410Z,6.00
2019-02-17T04:14:21.063Z,5.90
2019-02-17T04:16:53.727Z,5.90
2019-02-17T04:19:26.373Z,5.90
2019-02-17T04:21:59.054Z,5.90
2019-02-17T04:24:31.685Z,5.90
2019-02-17T04:27:04.367Z,5.80
2019-02-17T04:29:37.014Z,5.90
2019-02-17T04:32:09.668Z,5.80
2019-02-17T04:34:42.310Z,5.80
2019-02-17T04:37:15.002Z,5.70
2019-02-17T04:39:47.650Z,5.70
2019-02-17T04:42:20.301Z,5.70
2019-02-17T04:44:52.944Z,5.70
2019-02-17T04:47:25.647Z,5.70
2019-02-17T04:49:58.285Z,5.70
2019-02-17T04:52:30.953Z,5.80
2019-02-17T04:55:03.642Z,5.80
2019-02-17T04:57:36.290Z,5.80
2019-02-17T05:00:09.007Z,5.80
2019-02-17T05:02:41.676Z,5.90
2019-02-17T05:05:14.304Z,5.90
2019-02-17T05:07:46.953Z,5.80
2019-02-17T05:10:19.657Z,5.80
2019-02-17T05:12:52.332Z,5.80
2019-02-17T05:15:24.974Z,5.80
2019-02-17T05:17:57.639Z,5.80
2019-02-17T05:20:30.287Z,5.80
2019-02-17T05:23:02.947Z,5.80
2019-02-17T05:25:35.586Z,5.80
2019-02-17T05:28:08.244Z,5.80
2019-02-17T05:30:52.169Z,5.80
2019-02-17T05:33:15.280Z,5.80
2019-02-17T05:35:47.919Z,5.80
2019-02-17T05:38:20.586Z,5.80
2019-02-17T05:40:53.231Z,5.80
2019-02-17T05:43:25.904Z,5.70
2019-02-17T05:45:58.541Z,5.70
2019-02-17T05:48:31.199Z,5.70
2019-02-17T05:51:03.841Z,5.70
2019-02-17T05:53:36.492Z,5.70
2019-02-17T05:56:09.144Z,5.70
2019-02-17T05:58:41.790Z,5.70
2019-02-17T06:01:14.455Z,5.70
2019-02-17T06:03:47.115Z,5.70
2019-02-17T06:06:19.779Z,5.70
2019-02-17T06:08:52.561Z,5.60
2019-02-17T06:11:25.216Z,5.60
2019-02-17T06:13:57.951Z,5.60
2019-02-17T06:16:30.598Z,5.60
2019-02-17T06:19:03.257Z,5.60
2019-02-17T06:21:35.940Z,5.60
2019-02-17T06:24:08.680Z,5.50
2019-02-17T06:26:41.326Z,5.60
2019-02-17T06:29:13.976Z,5.50
2019-02-17T06:31:46.628Z,5.50
2019-02-17T06:34:19.265Z,5.50
2019-02-17T06:36:51.931Z,5.50
2019-02-17T06:39:24.580Z,5.40
2019-02-17T06:41:57.255Z,5.40
2019-02-17T06:44:29.909Z,5.50
2019-02-17T06:47:02.584Z,5.50
2019-02-17T06:49:36.231Z,5.50
2019-02-17T06:52:08.892Z,5.50
2019-02-17T06:54:41.619Z,5.50
2019-02-17T06:57:14.283Z,5.60
2019-02-17T06:59:46.926Z,5.60
2019-02-17T07:02:19.586Z,5.60
2019-02-17T07:04:52.246Z,5.60
2019-02-17T07:07:24.947Z,5.70
2019-02-17T07:09:57.666Z,5.70
2019-02-17T07:12:30.309Z,5.70
2019-02-17T07:15:03.048Z,5.80
2019-02-17T07:17:35.705Z,5.80
2019-02-17T07:20:09.778Z,5.90
2019-02-17T07:22:42.594Z,5.90
2019-02-17T07:25:15.230Z,6.00
2019-02-17T07:27:47.889Z,6.10
2019-02-17T07:30:20.543Z,6.10
2019-02-17T07:32:53.302Z,6.10
2019-02-17T07:35:25.954Z,6.20
2019-02-17T07:37:58.628Z,6.30
2019-02-17T07:40:31.271Z,6.40
2019-02-17T07:43:03.919Z,6.50
2019-02-17T07:45:36.550Z,6.60
2019-02-17T07:48:09.208Z,6.70
2019-02-17T07:50:41.859Z,6.80
2019-02-17T07:53:14.511Z,6.90
2019-02-17T07:55:47.172Z,6.90
2019-02-17T07:58:20.107Z,7.00
2019-02-17T08:00:52.842Z,7.10
2019-02-17T08:03:25.511Z,7.20
2019-02-17T08:05:58.150Z,7.30
2019-02-17T08:08:30.797Z,7.40
2019-02-17T08:11:04.431Z,7.40
2019-02-17T08:13:37.186Z,7.40
2019-02-17T08:16:09.814Z,7.40
2019-02-17T08:18:42.475Z,7.50
2019-02-17T08:21:15.171Z,7.60
2019-02-17T08:23:47.952Z,7.60
2019-02-17T08:26:20.684Z,7.60
2019-02-17T08:28:53.343Z,7.70
2019-02-17T08:31:26.111Z,7.70
2019-02-17T08:33:58.849Z,7.80
2019-02-17T08:36:31.522Z,7.80
2019-02-17T08:39:05.049Z,7.80
2019-02-17T08:41:37.779Z,7.90
2019-02-17T08:44:10.631Z,7.90
2019-02-17T08:46:45.059Z,7.90
2019-02-17T08:49:17.997Z,8.00
2019-02-17T08:51:50.747Z,8.10
2019-02-17T08:54:23.514Z,8.10
2019-02-17T08:56:56.202Z,8.20
2019-02-17T08:59:29.057Z,8.30
2019-02-17T09:02:05.903Z,8.40
2019-02-17T09:04:36.231Z,8.40
2019-02-17T09:07:08.863Z,8.50
2019-02-17T09:09:41.523Z,8.60
2019-02-17T09:12:14.162Z,8.60
2019-02-17T09:14:46.820Z,8.70
2019-02-17T09:17:19.463Z,8.80
2019-02-17T09:19:52.192Z,8.90
2019-02-17T09:22:24.854Z,9.00
2019-02-17T09:24:57.517Z,9.10
2019-02-17T09:27:30.170Z,9.10
2019-02-17T09:30:03.002Z,9.30
2019-02-17T09:32:35.688Z,9.40
2019-02-17T09:35:08.353Z,9.40
2019-02-17T09:37:41.002Z,9.50
2019-02-17T09:40:13.757Z,9.50
2019-02-17T09:42:46.442Z,9.60
2019-02-17T09:45:19.101Z,9.70
2019-02-17T09:47:51.750Z,9.70
2019-02-17T09:50:24.467Z,9.80
2019-02-17T09:52:57.123Z,9.90
2019-02-17T09:55:30.749Z,10.00
2019-02-17T09:58:03.402Z,10.00
2019-02-17T10:00:36.091Z,10.00
2019-02-17T10:03:08.753Z,10.10
2019-02-17T10:05:41.402Z,10.20
2019-02-17T10:08:14.065Z,10.20
2019-02-17T10:10:47.022Z,10.30
2019-02-17T10:13:19.646Z,10.30
2019-02-17T10:15:52.301Z,10.40
2019-02-17T10:18:25.028Z,10.50
2019-02-17T10:20:57.691Z,10.50
2019-02-17T10:23:30.337Z,10.60
2019-02-17T10:26:02.994Z,10.70
2019-02-17T10:28:42.009Z,10.70
2019-02-17T10:31:10.038Z,10.80
2019-02-17T10:33:42.697Z,10.90
2019-02-17T10:36:15.347Z,11.00
2019-02-17T10:38:48.028Z,11.00
2019-02-17T10:41:20.677Z,11.10
2019-02-17T10:43:53.318Z,11.10
2019-02-17T10:46:25.999Z,11.20
2019-02-17T10:48:58.730Z,11.20
2019-02-17T10:51:31.387Z,11.20
2019-02-17T10:54:04.848Z,11.30
2019-02-17T10:56:38.411Z,11.30
2019-02-17T10:59:11.907Z,11.40
2019-02-17T11:01:45.486Z,11.50
2019-02-17T11:04:18.970Z,11.50
2019-02-17T11:06:52.527Z,11.60
2019-02-17T11:09:26.050Z,11.60
2019-02-17T11:11:59.609Z,11.70
2019-02-17T11:14:33.121Z,11.80
2019-02-17T11:17:06.676Z,11.90
2019-02-17T11:19:40.508Z,11.90
2019-02-17T11:22:22.985Z,12.00
2019-02-17T11:24:49.281Z,12.10
2019-02-17T11:27:22.808Z,12.10
2019-02-17T11:29:56.365Z,12.20
2019-02-17T11:32:32.122Z,12.20
2019-02-17T11:35:05.329Z,12.30
2019-02-17T11:37:39.001Z,12.30
2019-02-17T11:40:12.590Z,12.40
2019-02-17T11:42:46.197Z,12.40
2019-02-17T11:45:19.729Z,12.50
2019-02-17T11:47:52.845Z,12.50
2019-02-17T11:50:25.488Z,12.50
2019-02-17T11:52:58.129Z,12.60
2019-02-17T11:55:30.863Z,12.70
2019-02-17T11:58:03.618Z,12.70
2019-02-17T12:00:36.380Z,12.80
2019-02-17T12:03:09.022Z,12.90
2019-02-17T12:05:41.978Z,12.90
2019-02-17T12:08:14.636Z,13.00
2019-02-17T12:10:47.309Z,13.10
2019-02-17T12:13:20.003Z,13.20
2019-02-17T12:15:52.691Z,13.20
2019-02-17T12:18:25.347Z,13.30
2019-02-17T12:20:58.042Z,13.30
2019-02-17T12:23:30.709Z,13.40
2019-02-17T12:26:03.396Z,13.50
2019-02-17T12:28:36.034Z,13.50
2019-02-17T12:31:08.731Z,13.60
2019-02-17T12:33:41.379Z,13.60
2019-02-17T12:36:14.043Z,13.70
2019-02-17T12:38:46.984Z,13.70
2019-02-17T12:41:19.649Z,13.80
2019-02-17T12:43:52.319Z,13.80
2019-02-17T12:46:24.978Z,13.90
2019-02-17T12:48:57.778Z,13.90
2019-02-17T12:51:30.460Z,13.90
2019-02-17T12:54:03.230Z,13.90
2019-02-17T12:56:35.890Z,14.00
2019-02-17T12:59:08.534Z,14.00
2019-02-17T13:01:41.186Z,14.10
2019-02-17T13:04:13.834Z,14.10
2019-02-17T13:06:46.510Z,14.10
2019-02-17T13:09:19.154Z,14.20
2019-02-17T13:11:51.811Z,14.20
2019-02-17T13:14:24.464Z,14.30
2019-02-17T13:16:57.110Z,14.30
2019-02-17T13:19:29.754Z,14.40
2019-02-17T13:22:02.573Z,14.40
2019-02-17T13:24:35.248Z,14.40
2019-02-17T13:27:07.892Z,14.50
2019-02-17T13:29:40.545Z,14.60
2019-02-17T13:32:13.196Z,14.60
2019-02-17T13:34:45.838Z,14.60
2019-02-17T13:37:18.499Z,14.70
2019-02-17T13:39:51.250Z,14.70
2019-02-17T13:42:23.906Z,14.80
2019-02-17T13:44:56.554Z,14.90
2019-02-17T13:47:29.206Z,14.90
2019-02-17T13:50:01.862Z,14.90
2019-02-17T13:52:34.529Z,14.90
2019-02-17T13:55:07.915Z,14.90
2019-02-17T13:57:40.626Z,14.90
2019-02-17T14:00:14.459Z,15.00
2019-02-17T14:02:47.101Z,15.00
2019-02-17T14:05:19.767Z,15.00
2019-02-17T14:07:52.421Z,14.90
2019-02-17T14:10:25.074Z,15.00
2019-02-17T14:12:57.730Z,15.00
2019-02-17T14:15:30.507Z,15.00
2019-02-17T14:18:03.226Z,15.10
2019-02-17T14:20:35.865Z,15.10
2019-02-17T14:23:08.546Z,15.10
2019-02-17T14:25:41.212Z,15.10
2019-02-17T14:28:13.942Z,15.10
2019-02-17T14:30:46.557Z,15.20
2019-02-17T14:33:19.294Z,15.20
2019-02-17T14:35:52.113Z,15.20
2019-02-17T14:38:24.822Z,15.30
2019-02-17T14:40:57.490Z,15.30
2019-02-17T14:43:30.219Z,15.40
2019-02-17T14:46:03.031Z,15.40
2019-02-17T14:48:36.029Z,15.40
2019-02-17T14:51:10.133Z,15.40
2019-02-17T14:53:42.991Z,15.40
2019-02-17T14:56:15.767Z,15.40
2019-02-17T14:58:48.424Z,15.40
2019-02-17T15:01:21.081Z,15.50
2019-02-17T15:03:53.745Z,15.50
2019-02-17T15:06:26.374Z,15.50
2019-02-17T15:08:59.072Z,15.50
2019-02-17T15:11:31.708Z,15.50
2019-02-17T15:14:04.379Z,15.40
2019-02-17T15:16:37.059Z,15.40
2019-02-17T15:19:09.739Z,15.40
2019-02-17T15:21:42.395Z,15.40
2019-02-17T15:24:15.050Z,15.30
2019-02-17T15:26:47.705Z,15.30
2019-02-17T15:29:20.358Z,15.30
2019-02-17T15:31:53.018Z,15.30
2019-02-17T15:34:25.698Z,15.20
2019-02-17T15:36:58.374Z,15.20
2019-02-17T15:39:31.110Z,15.20
2019-02-17T15:42:03.763Z,15.10
2019-02-17T15:44:36.459Z,15.10
2019-02-17T15:47:09.133Z,15.00
2019-02-17T15:49:41.781Z,15.00
2019-02-17T15:52:14.543Z,15.10
2019-02-17T15:54:47.226Z,15.00
2019-02-17T15:57:19.883Z,15.00
2019-02-17T15:59:52.623Z,14.90
2019-02-17T16:02:25.359Z,14.90
2019-02-17T16:04:58.042Z,14.80
2019-02-17T16:07:30.724Z,14.80
2019-02-17T16:10:04.048Z,14.80
2019-02-17T16:12:36.690Z,14.70
2019-02-17T16:15:11.546Z,14.70
2019-02-17T16:17:44.219Z,14.60
2019-02-17T16:20:16.872Z,14.50
2019-02-17T16:22:49.525Z,14.50
2019-02-17T16:25:22.166Z,14.40
2019-02-17T16:27:54.864Z,14.30
2019-02-17T16:30:27.529Z,14.30
2019-02-17T16:33:00.421Z,14.30
2019-02-17T16:35:33.062Z,14.20
2019-02-17T16:38:05.742Z,14.10
2019-02-17T16:40:38.396Z,14.10
2019-02-17T16:43:11.122Z,14.00
2019-02-17T16:45:43.866Z,14.00
2019-02-17T16:48:16.522Z,14.00
2019-02-17T16:50:49.183Z,13.90
2019-02-17T16:53:21.826Z,13.90
2019-02-17T16:55:54.594Z,13.80
2019-02-17T16:58:27.270Z,13.70
2019-02-17T17:00:59.945Z,13.70
2019-02-17T17:03:32.897Z,13.60
2019-02-17T17:06:05.562Z,13.60
2019-02-17T17:08:38.236Z,13.50
2019-02-17T17:11:10.874Z,13.50
2019-02-17T17:13:43.818Z,13.40
2019-02-17T17:16:16.936Z,13.40
2019-02-17T17:18:49.720Z,13.40
2019-02-17T17:21:22.653Z,13.30
2019-02-17T17:23:55.697Z,13.20
2019-02-17T17:26:28.314Z,13.10
2019-02-17T17:29:01.380Z,13.00
2019-02-17T17:31:35.617Z,13.00
2019-02-17T17:34:08.473Z,12.90
2019-02-17T17:36:41.363Z,12.90
2019-02-17T17:39:14.279Z,12.80
2019-02-17T17:41:46.938Z,12.70
2019-02-17T17:44:19.701Z,12.60
2019-02-17T17:46:52.382Z,12.50
2019-02-17T17:49:25.073Z,12.40
2019-02-17T17:52:00.829Z,12.30
2019-02-17T17:54:36.509Z,12.20
2019-02-17T17:57:09.441Z,12.20
2019-02-17T17:59:44.823Z,12.10
2019-02-17T18:02:20.506Z,12.10
2019-02-17T18:04:53.181Z,12.00
2019-02-17T18:07:29.008Z,12.00
2019-02-17T18:10:01.666Z,11.90
2019-02-17T18:12:34.593Z,11.90
2019-02-17T18:15:10.065Z,11.90
2019-02-17T18:17:42.903Z,11.90
2019-02-17T18:20:18.751Z,11.90
2019-02-17T18:22:51.638Z,11.90
2019-02-17T18:25:24.574Z,11.90
2019-02-17T18:27:57.300Z,11.90
2019-02-17T18:30:33.016Z,11.90
2019-02-17T18:33:05.805Z,11.90
2019-02-17T18:35:38.612Z,11.90
2019-02-17T18:38:11.493Z,11.90
2019-02-17T18:40:46.120Z,11.90
2019-02-17T18:43:18.745Z,11.90
2019-02-17T18:45:51.648Z,11.90
2019-02-17T18:48:24.502Z,11.90
2019-02-17T18:50:59.472Z,11.90
2019-02-17T18:53:31.705Z,11.80
2019-02-17T18:56:04.383Z,11.80
2019-02-17T18:58:37.341Z,11.80
2019-02-17T19:01:10.147Z,11.80
2019-02-17T19:03:45.605Z,11.80
2019-02-17T19:06:18.369Z,11.80
2019-02-17T19:08:51.002Z,11.70
2019-02-17T19:11:23.746Z,11.80
2019-02-17T19:13:56.520Z,11.70
2019-02-17T19:16:29.303Z,11.70
2019-02-17T19:19:01.993Z,11.70
2019-02-17T19:21:34.645Z,11.70
2019-02-17T19:24:07.660Z,11.70
2019-02-17T19:26:43.453Z,11.60
2019-02-17T19:29:16.483Z,11.60
2019-02-17T19:31:49.239Z,11.50
2019-02-17T19:34:21.932Z,11.50
2019-02-17T19:36:54.962Z,11.50
2019-02-17T19:39:27.654Z,11.50
2019-02-17T19:42:00.395Z,11.40
2019-02-17T19:44:33.038Z,11.40
2019-02-17T19:47:05.782Z,11.30
2019-02-17T19:49:38.631Z,11.30
2019-02-17T19:52:11.500Z,11.20
2019-02-17T19:54:44.336Z,11.10
2019-02-17T19:57:17.179Z,11.10
2019-02-17T19:59:50.005Z,11.00
2019-02-17T20:02:22.740Z,10.90
2019-02-17T20:04:55.415Z,10.80
2019-02-17T20:07:28.085Z,10.70
2019-02-17T20:10:00.779Z,10.70
2019-02-17T20:12:33.426Z,10.70
2019-02-17T20:15:06.118Z,10.60
2019-02-17T20:17:38.754Z,10.60
2019-02-17T20:20:11.488Z,10.60
2019-02-17T20:22:44.154Z,10.50
2019-02-17T20:25:16.805Z,10.50
2019-02-17T20:27:49.449Z,10.40
2019-02-17T20:30:22.165Z,10.30
2019-02-17T20:32:54.829Z,10.30
2019-02-17T20:35:27.618Z,10.20
2019-02-17T20:38:00.275Z,10.20
2019-02-17T20:40:32.946Z,10.10
2019-02-17T20:43:05.593Z,10.10
2019-02-17T20:45:38.269Z,10.10
2019-02-17T20:48:10.979Z,10.00
2019-02-17T20:50:43.634Z,10.00
2019-02-17T20:53:16.286Z,10.00
2019-02-17T20:55:48.939Z,9.90
2019-02-17T20:58:21.586Z,9.90
2019-02-17T21:00:54.246Z,9.80
2019-02-17T21:03:26.895Z,9.90
2019-02-17T21:05:59.551Z,9.80
2019-02-17T21:08:32.265Z,9.80
2019-02-17T21:11:04.928Z,9.70
2019-02-17T21:13:37.562Z,9.70
2019-02-17T21:16:10.215Z,9.70
2019-02-17T21:18:42.867Z,9.70
2019-02-17T21:21:15.534Z,9.70
2019-02-17T21:23:48.150Z,9.60
2019-02-17T21:26:26.021Z,9.70
2019-02-17T21:28:55.245Z,9.70
2019-02-17T21:31:27.895Z,9.60
2019-02-17T21:34:00.552Z,9.60
2019-02-17T21:36:33.223Z,9.60
2019-02-17T21:39:05.864Z,9.50
2019-02-17T21:41:38.593Z,9.50
2019-02-17T21:44:11.234Z,9.40
2019-02-17T21:46:43.887Z,9.40
2019-02-17T21:49:16.527Z,9.40
2019-02-17T21:51:49.174Z,9.30
2019-02-17T21:54:21.819Z,9.20
2019-02-17T21:56:54.496Z,9.30
2019-02-17T21:59:27.159Z,9.20
2019-02-17T22:01:59.802Z,9.10
2019-02-17T22:04:32.478Z,9.10
2019-02-17T22:07:05.118Z,9.10
2019-02-17T22:09:37.814Z,9.10
2019-02-17T22:12:10.466Z,9.00
2019-02-17T22:14:43.105Z,9.00
2019-02-17T22:17:15.754Z,8.90
2019-02-17T22:19:48.414Z,8.90
2019-02-17T22:22:21.074Z,8.90
2019-02-17T22:24:54.188Z,8.90
2019-02-17T22:27:26.845Z,8.90
2019-02-17T22:29:59.485Z,8.80
2019-02-17T22:32:32.125Z,8.80
2019-02-17T22:35:04.831Z,8.80
2019-02-17T22:37:37.526Z,8.80
2019-02-17T22:40:10.178Z,8.90
2019-02-17T22:42:42.826Z,8.90
2019-02-17T22:45:15.483Z,8.90
2019-02-17T22:47:59.927Z,8.90
2019-02-17T22:50:33.395Z,8.90
2019-02-17T22:53:06.185Z,8.90
2019-02-17T22:55:39.484Z,8.80
2019-02-17T22:58:12.151Z,8.70
2019-02-17T23:00:44.883Z,8.70
2019-02-17T23:03:17.526Z,8.70
2019-02-17T23:05:50.170Z,8.70
2019-02-17T23:08:22.814Z,8.70
2019-02-17T23:10:55.490Z,8.70
2019-02-17T23:13:28.130Z,8.70
2019-02-17T23:16:00.770Z,8.70
2019-02-17T23:18:33.436Z,8.80
2019-02-17T23:21:06.091Z,8.80
2019-02-17T23:23:38.727Z,8.80
2019-02-17T23:26:11.373Z,8.70
2019-02-17T23:28:44.038Z,8.70
2019-02-17T23:31:16.674Z,8.70
2019-02-17T23:33:49.324Z,8.60
2019-02-17T23:36:21.982Z,8.60
2019-02-17T23:38:54.663Z,8.70
2019-02-17T23:41:27.310Z,8.60
2019-02-17T23:44:00.123Z,8.60
2019-02-17T23:46:32.750Z,8.60
2019-02-17T23:49:05.399Z,8.50
2019-02-17T23:51:38.039Z,8.50
2019-02-17T23:54:10.755Z,8.50
2019-02-17T23:56:43.399Z,8.50
2019-02-17T23:59:16.059Z,8.50
